sensor_id;sensor_type;location;lat;lon;timestamp;temperature;humidity
23719;DHT22;43322;52.230;5.702;2024-03-29T00:00:47;8.60;99.90
23719;DHT22;43322;52.230;5.702;2024-03-29T00:03:13;8.60;99.90
23719;DHT22;43322;52.230;5.702;2024-03-29T00:05:39;8.40;99.90
23719;DHT22;43322;52.230;5.702;2024-03-29T00:08:05;8.40;99.90
23719;DHT22;43322;52.230;5.702;2024-03-29T00:10:31;8.40;99.90
23719;DHT22;43322;52.230;5.702;2024-03-29T00:12:58;8.30;99.90
23719;DHT22;43322;52.230;5.702;2024-03-29T00:15:24;8.30;99.90
23719;DHT22;43322;52.230;5.702;2024-03-29T00:17:50;9.00;99.90
23719;DHT22;43322;52.230;5.702;2024-03-29T00:20:16;8.40;99.90
23719;DHT22;43322;52.230;5.702;2024-03-29T00:22:42;8.40;99.90
23719;DHT22;43322;52.230;5.702;2024-03-29T00:25:08;8.30;1.00
23719;DHT22;43322;52.230;5.702;2024-03-29T00:27:35;8.30;99.90
23719;DHT22;43322;52.230;5.702;2024-03-29T00:30:02;8.20;99.90
23719;DHT22;43322;52.230;5.702;2024-03-29T00:32:28;8.10;1.00
23719;DHT22;43322;52.230;5.702;2024-03-29T00:34:54;8.10;1.00
23719;DHT22;43322;52.230;5.702;2024-03-29T00:37:20;8.20;99.90
23719;DHT22;43322;52.230;5.702;2024-03-29T00:39:46;8.30;99.90
23719;DHT22;43322;52.230;5.702;2024-03-29T00:42:12;8.30;99.90
23719;DHT22;43322;52.230;5.702;2024-03-29T00:44:38;8.20;1.00
23719;DHT22;43322;52.230;5.702;2024-03-29T00:47:06;8.20;1.00
23719;DHT22;43322;52.230;5.702;2024-03-29T00:49:32;8.20;1.00
23719;DHT22;43322;52.230;5.702;2024-03-29T00:51:57;8.20;99.90
23719;DHT22;43322;52.230;5.702;2024-03-29T00:54:23;8.20;1.00
23719;DHT22;43322;52.230;5.702;2024-03-29T00:56:49;8.10;1.00
23719;DHT22;43322;52.230;5.702;2024-03-29T00:59:15;8.10;1.00
23719;DHT22;43322;52.230;5.702;2024-03-29T01:01:41;8.20;1.00
23719;DHT22;43322;52.230;5.702;2024-03-29T01:04:08;8.10;1.00
23719;DHT22;43322;52.230;5.702;2024-03-29T01:06:34;8.20;1.00
23719;DHT22;43322;52.230;5.702;2024-03-29T01:09:00;8.10;1.00
23719;DHT22;43322;52.230;5.702;2024-03-29T01:11:26;8.20;1.00
23719;DHT22;43322;52.230;5.702;2024-03-29T01:13:53;8.10;1.00
23719;DHT22;43322;52.230;5.702;2024-03-29T01:16:19;8.00;1.00
23719;DHT22;43322;52.230;5.702;2024-03-29T01:18:44;8.00;1.00
23719;DHT22;43322;52.230;5.702;2024-03-29T01:21:12;8.10;1.00
23719;DHT22;43322;52.230;5.702;2024-03-29T01:23:38;8.00;1.00
23719;DHT22;43322;52.230;5.702;2024-03-29T01:26:04;8.00;1.00
23719;DHT22;43322;52.230;5.702;2024-03-29T01:28:30;8.00;1.00
23719;DHT22;43322;52.230;5.702;2024-03-29T01:30:56;8.00;1.00
23719;DHT22;43322;52.230;5.702;2024-03-29T01:33:22;8.00;1.00
23719;DHT22;43322;52.230;5.702;2024-03-29T01:35:48;8.00;1.00
23719;DHT22;43322;52.230;5.702;2024-03-29T01:38:16;7.90;1.00
23719;DHT22;43322;52.230;5.702;2024-03-29T01:40:42;8.00;1.00
23719;DHT22;43322;52.230;5.702;2024-03-29T01:43:08;8.10;1.00
23719;DHT22;43322;52.230;5.702;2024-03-29T01:45:36;8.10;99.90
23719;DHT22;43322;52.230;5.702;2024-03-29T01:48:05;8.20;99.90
23719;DHT22;43322;52.230;5.702;2024-03-29T01:50:32;8.10;1.00
23719;DHT22;43322;52.230;5.702;2024-03-29T01:53:00;8.10;1.00
23719;DHT22;43322;52.230;5.702;2024-03-29T01:55:29;8.10;1.00
23719;DHT22;43322;52.230;5.702;2024-03-29T01:57:56;8.00;1.00
23719;DHT22;43322;52.230;5.702;2024-03-29T02:00:24;8.00;1.00
23719;DHT22;43322;52.230;5.702;2024-03-29T02:02:52;8.10;99.90
23719;DHT22;43322;52.230;5.702;2024-03-29T02:05:19;8.10;1.00
23719;DHT22;43322;52.230;5.702;2024-03-29T02:07:46;8.00;1.00
23719;DHT22;43322;52.230;5.702;2024-03-29T02:10:14;8.10;99.90
23719;DHT22;43322;52.230;5.702;2024-03-29T02:12:42;8.00;1.00
23719;DHT22;43322;52.230;5.702;2024-03-29T02:15:14;8.00;1.00
23719;DHT22;43322;52.230;5.702;2024-03-29T02:17:41;8.00;99.90
23719;DHT22;43322;52.230;5.702;2024-03-29T02:20:09;8.00;1.00
23719;DHT22;43322;52.230;5.702;2024-03-29T02:22:40;7.90;1.00
23719;DHT22;43322;52.230;5.702;2024-03-29T02:25:12;7.90;1.00
23719;DHT22;43322;52.230;5.702;2024-03-29T02:27:39;7.90;1.00
23719;DHT22;43322;52.230;5.702;2024-03-29T02:30:07;7.80;1.00
23719;DHT22;43322;52.230;5.702;2024-03-29T02:32:34;7.70;1.00
23719;DHT22;43322;52.230;5.702;2024-03-29T02:35:01;7.70;1.00
23719;DHT22;43322;52.230;5.702;2024-03-29T02:37:27;7.80;1.00
23719;DHT22;43322;52.230;5.702;2024-03-29T02:39:54;7.90;1.00
23719;DHT22;43322;52.230;5.702;2024-03-29T02:42:22;7.80;1.00
23719;DHT22;43322;52.230;5.702;2024-03-29T02:44:49;7.90;1.00
23719;DHT22;43322;52.230;5.702;2024-03-29T02:47:16;7.90;1.00
23719;DHT22;43322;52.230;5.702;2024-03-29T02:49:42;8.00;99.90
23719;DHT22;43322;52.230;5.702;2024-03-29T02:52:09;8.00;1.00
23719;DHT22;43322;52.230;5.702;2024-03-29T02:54:35;8.00;99.90
23719;DHT22;43322;52.230;5.702;2024-03-29T02:57:01;7.90;1.00
23719;DHT22;43322;52.230;5.702;2024-03-29T02:59:29;7.90;1.00
23719;DHT22;43322;52.230;5.702;2024-03-29T03:01:55;8.00;1.00
23719;DHT22;43322;52.230;5.702;2024-03-29T03:04:24;8.00;1.00
23719;DHT22;43322;52.230;5.702;2024-03-29T03:06:51;8.00;1.00
23719;DHT22;43322;52.230;5.702;2024-03-29T03:09:17;8.00;99.90
23719;DHT22;43322;52.230;5.702;2024-03-29T03:12:04;8.10;1.00
23719;DHT22;43322;52.230;5.702;2024-03-29T03:14:32;8.00;99.90
23719;DHT22;43322;52.230;5.702;2024-03-29T03:16:59;8.00;1.00
23719;DHT22;43322;52.230;5.702;2024-03-29T03:19:26;8.10;99.90
23719;DHT22;43322;52.230;5.702;2024-03-29T03:21:51;8.20;99.90
23719;DHT22;43322;52.230;5.702;2024-03-29T03:24:18;8.10;99.90
23719;DHT22;43322;52.230;5.702;2024-03-29T03:26:45;8.10;99.90
23719;DHT22;43322;52.230;5.702;2024-03-29T03:29:11;8.20;99.90
23719;DHT22;43322;52.230;5.702;2024-03-29T03:31:39;8.20;99.90
23719;DHT22;43322;52.230;5.702;2024-03-29T03:34:05;8.10;99.90
23719;DHT22;43322;52.230;5.702;2024-03-29T03:36:32;8.20;99.90
23719;DHT22;43322;52.230;5.702;2024-03-29T03:38:57;8.20;99.90
23719;DHT22;43322;52.230;5.702;2024-03-29T03:41:24;8.20;1.00
23719;DHT22;43322;52.230;5.702;2024-03-29T03:43:50;8.30;99.90
23719;DHT22;43322;52.230;5.702;2024-03-29T03:46:17;8.30;99.90
23719;DHT22;43322;52.230;5.702;2024-03-29T03:48:44;8.40;99.90
23719;DHT22;43322;52.230;5.702;2024-03-29T03:51:11;8.30;99.90
23719;DHT22;43322;52.230;5.702;2024-03-29T03:53:37;8.40;99.90
23719;DHT22;43322;52.230;5.702;2024-03-29T03:56:04;8.40;99.90
23719;DHT22;43322;52.230;5.702;2024-03-29T03:58:30;8.40;99.90
23719;DHT22;43322;52.230;5.702;2024-03-29T04:00:57;8.40;1.00
23719;DHT22;43322;52.230;5.702;2024-03-29T04:03:28;8.50;99.90
23719;DHT22;43322;52.230;5.702;2024-03-29T04:05:57;8.60;99.90
23719;DHT22;43322;52.230;5.702;2024-03-29T04:08:22;8.50;99.90
23719;DHT22;43322;52.230;5.702;2024-03-29T04:10:49;8.50;99.90
23719;DHT22;43322;52.230;5.702;2024-03-29T04:13:15;8.60;99.90
23719;DHT22;43322;52.230;5.702;2024-03-29T04:15:42;8.60;99.90
23719;DHT22;43322;52.230;5.702;2024-03-29T04:18:08;8.60;99.90
23719;DHT22;43322;52.230;5.702;2024-03-29T04:20:35;8.60;1.00
23719;DHT22;43322;52.230;5.702;2024-03-29T04:23:05;8.50;1.00
23719;DHT22;43322;52.230;5.702;2024-03-29T04:25:32;8.60;99.90
23719;DHT22;43322;52.230;5.702;2024-03-29T04:27:58;8.70;99.90
23719;DHT22;43322;52.230;5.702;2024-03-29T04:30:25;8.70;99.90
23719;DHT22;43322;52.230;5.702;2024-03-29T04:32:51;8.70;99.90
23719;DHT22;43322;52.230;5.702;2024-03-29T04:35:17;8.70;99.90
23719;DHT22;43322;52.230;5.702;2024-03-29T04:37:43;8.70;1.00
23719;DHT22;43322;52.230;5.702;2024-03-29T04:40:12;8.60;1.00
23719;DHT22;43322;52.230;5.702;2024-03-29T04:42:39;8.60;1.00
23719;DHT22;43322;52.230;5.702;2024-03-29T04:45:06;8.80;99.90
23719;DHT22;43322;52.230;5.702;2024-03-29T04:47:33;8.70;99.90
23719;DHT22;43322;52.230;5.702;2024-03-29T04:50:00;8.70;99.90
23719;DHT22;43322;52.230;5.702;2024-03-29T04:52:26;8.20;99.90
23719;DHT22;43322;52.230;5.702;2024-03-29T04:54:53;8.80;99.90
23719;DHT22;43322;52.230;5.702;2024-03-29T04:57:21;8.90;99.90
23719;DHT22;43322;52.230;5.702;2024-03-29T04:59:48;8.90;1.00
23719;DHT22;43322;52.230;5.702;2024-03-29T05:02:15;8.70;1.00
23719;DHT22;43322;52.230;5.702;2024-03-29T05:04:42;8.70;1.00
23719;DHT22;43322;52.230;5.702;2024-03-29T05:07:09;8.70;1.00
23719;DHT22;43322;52.230;5.702;2024-03-29T05:09:36;8.70;1.00
23719;DHT22;43322;52.230;5.702;2024-03-29T05:12:03;8.70;1.00
23719;DHT22;43322;52.230;5.702;2024-03-29T05:14:32;8.70;29.10
23719;DHT22;43322;52.230;5.702;2024-03-29T05:16:59;8.60;99.90
23719;DHT22;43322;52.230;5.702;2024-03-29T05:19:25;8.60;99.90
23719;DHT22;43322;52.230;5.702;2024-03-29T05:21:52;8.50;1.00
23719;DHT22;43322;52.230;5.702;2024-03-29T05:24:19;8.40;1.00
23719;DHT22;43322;52.230;5.702;2024-03-29T05:26:46;8.30;99.90
23719;DHT22;43322;52.230;5.702;2024-03-29T05:29:13;8.30;1.00
23719;DHT22;43322;52.230;5.702;2024-03-29T05:31:42;8.30;1.00
23719;DHT22;43322;52.230;5.702;2024-03-29T05:34:08;8.90;1.00
23719;DHT22;43322;52.230;5.702;2024-03-29T05:36:35;8.20;1.00
23719;DHT22;43322;52.230;5.702;2024-03-29T05:39:02;8.20;99.90
23719;DHT22;43322;52.230;5.702;2024-03-29T05:41:29;8.10;1.00
23719;DHT22;43322;52.230;5.702;2024-03-29T05:43:57;8.10;1.00
23719;DHT22;43322;52.230;5.702;2024-03-29T05:46:24;8.20;1.00
23719;DHT22;43322;52.230;5.702;2024-03-29T05:48:52;8.10;2.90
23719;DHT22;43322;52.230;5.702;2024-03-29T05:51:19;8.10;1.00
23719;DHT22;43322;52.230;5.702;2024-03-29T05:53:46;8.10;99.90
23719;DHT22;43322;52.230;5.702;2024-03-29T05:56:12;8.00;1.00
23719;DHT22;43322;52.230;5.702;2024-03-29T05:58:39;8.00;99.90
23719;DHT22;43322;52.230;5.702;2024-03-29T06:01:07;7.90;1.00
23719;DHT22;43322;52.230;5.702;2024-03-29T06:03:34;7.90;99.90
23719;DHT22;43322;52.230;5.702;2024-03-29T06:06:02;7.90;1.00
23719;DHT22;43322;52.230;5.702;2024-03-29T06:08:29;7.90;99.90
23719;DHT22;43322;52.230;5.702;2024-03-29T06:10:56;8.00;99.90
23719;DHT22;43322;52.230;5.702;2024-03-29T06:13:24;7.90;99.90
23719;DHT22;43322;52.230;5.702;2024-03-29T06:16:11;7.90;99.90
23719;DHT22;43322;52.230;5.702;2024-03-29T06:19:00;7.90;99.90
23719;DHT22;43322;52.230;5.702;2024-03-29T06:21:28;7.90;1.00
23719;DHT22;43322;52.230;5.702;2024-03-29T06:23:58;7.90;1.00
23719;DHT22;43322;52.230;5.702;2024-03-29T06:26:24;7.90;1.00
23719;DHT22;43322;52.230;5.702;2024-03-29T06:28:51;7.90;67.60
23719;DHT22;43322;52.230;5.702;2024-03-29T06:31:18;7.90;1.00
23719;DHT22;43322;52.230;5.702;2024-03-29T06:33:45;7.90;1.00
23719;DHT22;43322;52.230;5.702;2024-03-29T06:36:12;7.90;1.00
23719;DHT22;43322;52.230;5.702;2024-03-29T06:38:40;8.00;1.00
23719;DHT22;43322;52.230;5.702;2024-03-29T06:41:07;8.00;1.00
23719;DHT22;43322;52.230;5.702;2024-03-29T06:43:34;8.00;1.00
23719;DHT22;43322;52.230;5.702;2024-03-29T06:46:01;7.90;99.90
23719;DHT22;43322;52.230;5.702;2024-03-29T06:48:29;7.90;1.00
23719;DHT22;43322;52.230;5.702;2024-03-29T06:50:56;8.00;1.00
23719;DHT22;43322;52.230;5.702;2024-03-29T06:53:23;8.00;1.00
23719;DHT22;43322;52.230;5.702;2024-03-29T06:55:54;8.10;1.00
23719;DHT22;43322;52.230;5.702;2024-03-29T06:58:21;8.30;1.00
23719;DHT22;43322;52.230;5.702;2024-03-29T07:00:47;8.40;99.90
23719;DHT22;43322;52.230;5.702;2024-03-29T07:03:16;8.40;1.00
23719;DHT22;43322;52.230;5.702;2024-03-29T07:05:44;8.50;1.20
23719;DHT22;43322;52.230;5.702;2024-03-29T07:08:11;8.40;1.00
23719;DHT22;43322;52.230;5.702;2024-03-29T07:10:37;8.40;99.90
23719;DHT22;43322;52.230;5.702;2024-03-29T07:13:06;8.50;1.00
23719;DHT22;43322;52.230;5.702;2024-03-29T07:15:33;8.30;99.90
23719;DHT22;43322;52.230;5.702;2024-03-29T07:18:00;8.50;99.90
23719;DHT22;43322;52.230;5.702;2024-03-29T07:20:28;8.60;99.90
23719;DHT22;43322;52.230;5.702;2024-03-29T07:22:55;8.70;7.90
23719;DHT22;43322;52.230;5.702;2024-03-29T07:25:22;8.70;1.00
23719;DHT22;43322;52.230;5.702;2024-03-29T07:27:49;8.60;99.90
23719;DHT22;43322;52.230;5.702;2024-03-29T07:30:17;8.60;1.00
23719;DHT22;43322;52.230;5.702;2024-03-29T07:32:44;8.50;1.00
23719;DHT22;43322;52.230;5.702;2024-03-29T07:35:11;8.40;99.90
23719;DHT22;43322;52.230;5.702;2024-03-29T07:37:40;8.40;1.00
23719;DHT22;43322;52.230;5.702;2024-03-29T07:40:11;8.40;22.70
23719;DHT22;43322;52.230;5.702;2024-03-29T07:42:38;8.50;1.00
23719;DHT22;43322;52.230;5.702;2024-03-29T07:45:05;8.50;1.00
23719;DHT22;43322;52.230;5.702;2024-03-29T07:47:33;8.60;43.10
23719;DHT22;43322;52.230;5.702;2024-03-29T07:50:00;8.40;1.00
23719;DHT22;43322;52.230;5.702;2024-03-29T07:52:27;8.40;3.00
23719;DHT22;43322;52.230;5.702;2024-03-29T07:54:55;8.50;1.00
23719;DHT22;43322;52.230;5.702;2024-03-29T07:57:22;8.40;1.00
23719;DHT22;43322;52.230;5.702;2024-03-29T07:59:50;8.40;11.20
23719;DHT22;43322;52.230;5.702;2024-03-29T08:02:17;8.50;99.90
23719;DHT22;43322;52.230;5.702;2024-03-29T08:04:45;8.40;99.90
23719;DHT22;43322;52.230;5.702;2024-03-29T08:07:12;8.50;1.00
23719;DHT22;43322;52.230;5.702;2024-03-29T08:09:39;8.60;99.90
23719;DHT22;43322;52.230;5.702;2024-03-29T08:12:06;8.60;1.00
23719;DHT22;43322;52.230;5.702;2024-03-29T08:14:33;8.70;1.00
23719;DHT22;43322;52.230;5.702;2024-03-29T08:17:00;8.70;1.00
23719;DHT22;43322;52.230;5.702;2024-03-29T08:19:30;8.80;1.00
23719;DHT22;43322;52.230;5.702;2024-03-29T08:21:58;8.80;99.90
23719;DHT22;43322;52.230;5.702;2024-03-29T08:24:26;8.70;99.90
23719;DHT22;43322;52.230;5.702;2024-03-29T08:26:53;8.80;99.90
23719;DHT22;43322;52.230;5.702;2024-03-29T08:29:20;8.80;1.00
23719;DHT22;43322;52.230;5.702;2024-03-29T08:31:46;8.80;1.00
23719;DHT22;43322;52.230;5.702;2024-03-29T08:34:13;8.70;1.00
23719;DHT22;43322;52.230;5.702;2024-03-29T08:36:41;8.70;1.00
23719;DHT22;43322;52.230;5.702;2024-03-29T08:39:09;8.70;1.00
23719;DHT22;43322;52.230;5.702;2024-03-29T08:41:35;8.70;1.00
23719;DHT22;43322;52.230;5.702;2024-03-29T08:44:02;8.60;1.00
23719;DHT22;43322;52.230;5.702;2024-03-29T08:46:29;8.70;1.00
23719;DHT22;43322;52.230;5.702;2024-03-29T08:48:55;8.80;1.00
23719;DHT22;43322;52.230;5.702;2024-03-29T08:51:22;8.90;1.00
23719;DHT22;43322;52.230;5.702;2024-03-29T08:53:49;8.90;99.90
23719;DHT22;43322;52.230;5.702;2024-03-29T08:56:18;8.80;1.00
23719;DHT22;43322;52.230;5.702;2024-03-29T08:58:44;8.90;1.00
23719;DHT22;43322;52.230;5.702;2024-03-29T09:01:12;9.00;6.30
23719;DHT22;43322;52.230;5.702;2024-03-29T09:03:40;9.20;1.00
23719;DHT22;43322;52.230;5.702;2024-03-29T09:06:07;9.80;1.00
23719;DHT22;43322;52.230;5.702;2024-03-29T09:08:34;10.20;99.90
23719;DHT22;43322;52.230;5.702;2024-03-29T09:11:01;10.70;1.00
23719;DHT22;43322;52.230;5.702;2024-03-29T09:13:30;11.00;1.00
23719;DHT22;43322;52.230;5.702;2024-03-29T09:15:57;11.40;1.00
23719;DHT22;43322;52.230;5.702;2024-03-29T09:18:24;11.40;99.90
23719;DHT22;43322;52.230;5.702;2024-03-29T09:20:58;11.80;1.00
23719;DHT22;43322;52.230;5.702;2024-03-29T09:23:26;12.00;99.90
23719;DHT22;43322;52.230;5.702;2024-03-29T09:25:54;12.30;99.90
23719;DHT22;43322;52.230;5.702;2024-03-29T09:28:22;12.00;1.00
23719;DHT22;43322;52.230;5.702;2024-03-29T09:30:57;11.70;1.00
23719;DHT22;43322;52.230;5.702;2024-03-29T09:33:24;11.80;99.90
23719;DHT22;43322;52.230;5.702;2024-03-29T09:35:51;11.90;99.90
23719;DHT22;43322;52.230;5.702;2024-03-29T09:38:19;11.90;99.90
23719;DHT22;43322;52.230;5.702;2024-03-29T09:40:46;11.90;49.20
23719;DHT22;43322;52.230;5.702;2024-03-29T09:43:16;12.00;25.70
23719;DHT22;43322;52.230;5.702;2024-03-29T09:45:44;12.20;99.90
23719;DHT22;43322;52.230;5.702;2024-03-29T09:48:13;12.40;1.00
23719;DHT22;43322;52.230;5.702;2024-03-29T09:50:40;12.30;1.00
23719;DHT22;43322;52.230;5.702;2024-03-29T09:53:07;12.20;1.00
23719;DHT22;43322;52.230;5.702;2024-03-29T09:55:35;12.20;1.00
23719;DHT22;43322;52.230;5.702;2024-03-29T09:58:03;12.10;1.00
23719;DHT22;43322;52.230;5.702;2024-03-29T10:00:31;12.00;1.00
23719;DHT22;43322;52.230;5.702;2024-03-29T10:02:58;11.80;1.00
23719;DHT22;43322;52.230;5.702;2024-03-29T10:05:27;11.00;1.00
23719;DHT22;43322;52.230;5.702;2024-03-29T10:07:55;11.40;1.00
23719;DHT22;43322;52.230;5.702;2024-03-29T10:10:22;11.40;1.00
23719;DHT22;43322;52.230;5.702;2024-03-29T10:12:49;11.50;42.40
23719;DHT22;43322;52.230;5.702;2024-03-29T10:15:15;11.40;1.00
23719;DHT22;43322;52.230;5.702;2024-03-29T10:17:45;11.50;1.00
23719;DHT22;43322;52.230;5.702;2024-03-29T10:20:16;11.50;1.00
23719;DHT22;43322;52.230;5.702;2024-03-29T10:22:45;11.80;1.00
23719;DHT22;43322;52.230;5.702;2024-03-29T10:25:13;12.10;8.80
23719;DHT22;43322;52.230;5.702;2024-03-29T10:27:40;12.40;1.00
23719;DHT22;43322;52.230;5.702;2024-03-29T10:30:08;12.60;1.00
23719;DHT22;43322;52.230;5.702;2024-03-29T10:32:37;13.00;1.00
23719;DHT22;43322;52.230;5.702;2024-03-29T10:35:05;13.00;1.00
23719;DHT22;43322;52.230;5.702;2024-03-29T10:37:32;12.80;1.00
23719;DHT22;43322;52.230;5.702;2024-03-29T10:40:07;12.90;1.00
23719;DHT22;43322;52.230;5.702;2024-03-29T10:42:36;13.20;1.00
23719;DHT22;43322;52.230;5.702;2024-03-29T10:45:05;13.40;99.90
23719;DHT22;43322;52.230;5.702;2024-03-29T10:47:33;13.20;1.00
23719;DHT22;43322;52.230;5.702;2024-03-29T10:50:00;13.00;1.00
23719;DHT22;43322;52.230;5.702;2024-03-29T10:52:28;12.90;1.00
23719;DHT22;43322;52.230;5.702;2024-03-29T10:54:55;13.20;1.00
23719;DHT22;43322;52.230;5.702;2024-03-29T10:57:25;13.30;1.00
23719;DHT22;43322;52.230;5.702;2024-03-29T11:00:00;13.60;1.00
23719;DHT22;43322;52.230;5.702;2024-03-29T11:02:35;13.80;1.00
23719;DHT22;43322;52.230;5.702;2024-03-29T11:05:09;13.80;99.90
23719;DHT22;43322;52.230;5.702;2024-03-29T11:07:39;14.10;1.00
23719;DHT22;43322;52.230;5.702;2024-03-29T11:10:13;14.10;99.90
23719;DHT22;43322;52.230;5.702;2024-03-29T11:12:49;13.80;1.00
23719;DHT22;43322;52.230;5.702;2024-03-29T11:15:25;13.70;99.90
23719;DHT22;43322;52.230;5.702;2024-03-29T11:17:54;14.00;1.00
23719;DHT22;43322;52.230;5.702;2024-03-29T11:20:23;14.00;99.90
23719;DHT22;43322;52.230;5.702;2024-03-29T11:22:59;13.70;99.90
23719;DHT22;43322;52.230;5.702;2024-03-29T11:25:38;13.70;1.00
23719;DHT22;43322;52.230;5.702;2024-03-29T11:28:06;13.50;1.00
23719;DHT22;43322;52.230;5.702;2024-03-29T11:30:40;13.90;1.00
23719;DHT22;43322;52.230;5.702;2024-03-29T11:33:07;13.80;99.90
23719;DHT22;43322;52.230;5.702;2024-03-29T11:35:39;14.10;99.90
23719;DHT22;43322;52.230;5.702;2024-03-29T11:38:06;14.40;1.00
23719;DHT22;43322;52.230;5.702;2024-03-29T11:40:33;14.40;99.90
23719;DHT22;43322;52.230;5.702;2024-03-29T11:43:00;14.10;99.90
23719;DHT22;43322;52.230;5.702;2024-03-29T11:45:29;14.00;99.90
23719;DHT22;43322;52.230;5.702;2024-03-29T11:48:02;13.90;99.90
23719;DHT22;43322;52.230;5.702;2024-03-29T11:50:31;14.00;1.00
23719;DHT22;43322;52.230;5.702;2024-03-29T11:53:02;14.70;99.90
23719;DHT22;43322;52.230;5.702;2024-03-29T11:55:29;14.70;99.90
23719;DHT22;43322;52.230;5.702;2024-03-29T11:57:56;14.50;99.90
23719;DHT22;43322;52.230;5.702;2024-03-29T12:00:24;14.40;99.90
23719;DHT22;43322;52.230;5.702;2024-03-29T12:02:56;14.30;99.90
23719;DHT22;43322;52.230;5.702;2024-03-29T12:05:23;14.30;99.90
23719;DHT22;43322;52.230;5.702;2024-03-29T12:07:51;14.10;99.90
23719;DHT22;43322;52.230;5.702;2024-03-29T12:10:18;14.00;99.90
23719;DHT22;43322;52.230;5.702;2024-03-29T12:12:45;13.90;99.90
23719;DHT22;43322;52.230;5.702;2024-03-29T12:15:13;14.00;99.90
23719;DHT22;43322;52.230;5.702;2024-03-29T12:17:40;13.90;99.90
23719;DHT22;43322;52.230;5.702;2024-03-29T12:20:10;13.90;99.90
23719;DHT22;43322;52.230;5.702;2024-03-29T12:22:38;13.70;99.90
23719;DHT22;43322;52.230;5.702;2024-03-29T12:25:05;13.60;99.90
23719;DHT22;43322;52.230;5.702;2024-03-29T12:27:32;13.60;99.90
23719;DHT22;43322;52.230;5.702;2024-03-29T12:29:59;13.50;99.90
23719;DHT22;43322;52.230;5.702;2024-03-29T12:32:26;13.50;99.90
23719;DHT22;43322;52.230;5.702;2024-03-29T12:34:55;13.50;99.90
23719;DHT22;43322;52.230;5.702;2024-03-29T12:37:23;13.50;99.90
23719;DHT22;43322;52.230;5.702;2024-03-29T12:39:54;13.60;99.90
23719;DHT22;43322;52.230;5.702;2024-03-29T12:42:22;13.70;99.90
23719;DHT22;43322;52.230;5.702;2024-03-29T12:44:49;14.10;99.90
23719;DHT22;43322;52.230;5.702;2024-03-29T12:47:17;14.40;99.90
23719;DHT22;43322;52.230;5.702;2024-03-29T12:49:44;14.60;99.90
23719;DHT22;43322;52.230;5.702;2024-03-29T12:52:11;14.40;99.90
23719;DHT22;43322;52.230;5.702;2024-03-29T12:54:40;14.30;99.90
23719;DHT22;43322;52.230;5.702;2024-03-29T12:57:06;14.30;99.90
23719;DHT22;43322;52.230;5.702;2024-03-29T12:59:34;14.20;99.90
23719;DHT22;43322;52.230;5.702;2024-03-29T13:02:00;14.20;99.90
23719;DHT22;43322;52.230;5.702;2024-03-29T13:04:29;14.30;99.90
23719;DHT22;43322;52.230;5.702;2024-03-29T13:06:56;14.50;99.90
23719;DHT22;43322;52.230;5.702;2024-03-29T13:09:23;14.50;99.90
23719;DHT22;43322;52.230;5.702;2024-03-29T13:11:51;14.40;99.90
23719;DHT22;43322;52.230;5.702;2024-03-29T13:14:18;14.30;99.90
23719;DHT22;43322;52.230;5.702;2024-03-29T13:16:45;14.20;99.90
23719;DHT22;43322;52.230;5.702;2024-03-29T13:19:12;14.20;99.90
23719;DHT22;43322;52.230;5.702;2024-03-29T13:21:39;14.10;99.90
23719;DHT22;43322;52.230;5.702;2024-03-29T13:24:06;14.20;99.90
23719;DHT22;43322;52.230;5.702;2024-03-29T13:26:33;14.40;99.90
23719;DHT22;43322;52.230;5.702;2024-03-29T13:29:01;14.50;99.90
23719;DHT22;43322;52.230;5.702;2024-03-29T13:31:28;14.60;99.90
23719;DHT22;43322;52.230;5.702;2024-03-29T13:33:55;14.80;99.90
23719;DHT22;43322;52.230;5.702;2024-03-29T13:36:29;15.00;99.90
23719;DHT22;43322;52.230;5.702;2024-03-29T13:38:56;14.90;99.90
23719;DHT22;43322;52.230;5.702;2024-03-29T13:41:23;14.90;99.90
23719;DHT22;43322;52.230;5.702;2024-03-29T13:43:51;14.70;99.90
23719;DHT22;43322;52.230;5.702;2024-03-29T13:46:20;14.70;99.90
23719;DHT22;43322;52.230;5.702;2024-03-29T13:48:46;14.60;99.90
23719;DHT22;43322;52.230;5.702;2024-03-29T13:51:13;14.60;99.90
23719;DHT22;43322;52.230;5.702;2024-03-29T13:53:42;14.70;99.90
23719;DHT22;43322;52.230;5.702;2024-03-29T13:56:08;14.90;99.90
23719;DHT22;43322;52.230;5.702;2024-03-29T13:58:35;15.00;99.90
23719;DHT22;43322;52.230;5.702;2024-03-29T14:01:02;15.20;99.90
23719;DHT22;43322;52.230;5.702;2024-03-29T14:03:31;15.30;99.90
23719;DHT22;43322;52.230;5.702;2024-03-29T14:05:58;15.30;99.90
23719;DHT22;43322;52.230;5.702;2024-03-29T14:08:25;15.00;99.90
23719;DHT22;43322;52.230;5.702;2024-03-29T14:10:52;14.90;99.90
23719;DHT22;43322;52.230;5.702;2024-03-29T14:13:19;14.90;99.90
23719;DHT22;43322;52.230;5.702;2024-03-29T14:15:45;15.00;99.90
23719;DHT22;43322;52.230;5.702;2024-03-29T14:18:11;14.90;99.90
23719;DHT22;43322;52.230;5.702;2024-03-29T14:20:40;15.00;99.90
23719;DHT22;43322;52.230;5.702;2024-03-29T14:23:07;14.90;99.90
23719;DHT22;43322;52.230;5.702;2024-03-29T14:25:37;14.90;99.90
23719;DHT22;43322;52.230;5.702;2024-03-29T14:28:05;14.90;99.90
23719;DHT22;43322;52.230;5.702;2024-03-29T14:30:32;14.90;99.90
23719;DHT22;43322;52.230;5.702;2024-03-29T14:32:59;14.90;99.90
23719;DHT22;43322;52.230;5.702;2024-03-29T14:35:31;14.90;99.90
23719;DHT22;43322;52.230;5.702;2024-03-29T14:38:00;15.00;99.90
23719;DHT22;43322;52.230;5.702;2024-03-29T14:40:27;14.90;99.90
23719;DHT22;43322;52.230;5.702;2024-03-29T14:42:54;14.90;99.90
23719;DHT22;43322;52.230;5.702;2024-03-29T14:45:23;14.90;99.90
23719;DHT22;43322;52.230;5.702;2024-03-29T14:47:50;14.90;99.90
23719;DHT22;43322;52.230;5.702;2024-03-29T14:50:17;14.90;99.90
23719;DHT22;43322;52.230;5.702;2024-03-29T14:52:44;14.80;99.90
23719;DHT22;43322;52.230;5.702;2024-03-29T14:55:12;14.80;99.90
23719;DHT22;43322;52.230;5.702;2024-03-29T14:57:39;14.60;99.90
23719;DHT22;43322;52.230;5.702;2024-03-29T15:00:07;14.60;99.90
23719;DHT22;43322;52.230;5.702;2024-03-29T15:02:35;14.50;99.90
23719;DHT22;43322;52.230;5.702;2024-03-29T15:05:02;14.50;99.90
23719;DHT22;43322;52.230;5.702;2024-03-29T15:07:31;14.50;99.90
23719;DHT22;43322;52.230;5.702;2024-03-29T15:09:58;14.60;99.90
23719;DHT22;43322;52.230;5.702;2024-03-29T15:12:27;14.70;99.90
23719;DHT22;43322;52.230;5.702;2024-03-29T15:14:54;14.70;99.90
23719;DHT22;43322;52.230;5.702;2024-03-29T15:17:21;14.70;99.90
23719;DHT22;43322;52.230;5.702;2024-03-29T15:19:48;14.70;99.90
23719;DHT22;43322;52.230;5.702;2024-03-29T15:22:17;14.60;99.90
23719;DHT22;43322;52.230;5.702;2024-03-29T15:24:44;14.60;99.90
23719;DHT22;43322;52.230;5.702;2024-03-29T15:27:11;15.10;99.90
23719;DHT22;43322;52.230;5.702;2024-03-29T15:29:54;14.60;99.90
23719;DHT22;43322;52.230;5.702;2024-03-29T15:32:21;14.50;99.90
23719;DHT22;43322;52.230;5.702;2024-03-29T15:34:48;14.70;99.90
23719;DHT22;43322;52.230;5.702;2024-03-29T15:37:16;14.60;99.90
23719;DHT22;43322;52.230;5.702;2024-03-29T15:39:42;14.60;99.90
23719;DHT22;43322;52.230;5.702;2024-03-29T15:42:10;14.50;99.90
23719;DHT22;43322;52.230;5.702;2024-03-29T15:44:38;14.60;99.90
23719;DHT22;43322;52.230;5.702;2024-03-29T15:47:06;14.50;99.90
23719;DHT22;43322;52.230;5.702;2024-03-29T15:49:34;14.60;99.90